Time;durP1;ratioP1;P1;durP2;ratioP2;P2;SDS_P1;SDS_P2;PMS_P1;PMS_P2;Temp;Humidity;BMP_temperature;BMP_pressure;BME280_temperature;BME280_humidity;BME280_pressure;Samples;Min_cycle;Max_cycle;Signal;HPM_P1;HPM_P2
2021/12/03 00:01:17;;;;;;;3.50;0.73;;;-1.80;99.90;;;;;;5024793;28;20097;-83
2021/12/03 00:03:43;;;;;;;4.50;1.02;;;-1.80;99.90;;;;;;4991993;28;20033;-83
2021/12/03 00:06:09;;;;;;;2.65;0.65;;;-1.70;99.90;;;;;;5008294;28;20038;-84
2021/12/03 00:08:35;;;;;;;3.08;1.00;;;-1.60;99.90;;;;;;4991872;28;20106;-84
2021/12/03 00:11:03;;;;;;;3.95;0.95;;;-1.60;99.90;;;;;;5008255;28;20085;-84
2021/12/03 00:13:31;;;;;;;3.90;0.80;;;-1.70;99.90;;;;;;4992017;28;20469;-84
2021/12/03 00:15:58;;;;;;;3.55;0.77;;;-1.70;99.90;;;;;;4991664;28;20038;-83
2021/12/03 00:18:23;;;;;;;4.03;0.88;;;-1.70;99.90;;;;;;5008114;28;20056;-84
2021/12/03 00:20:50;;;;;;;3.38;0.90;;;-1.60;99.90;;;;;;4988540;28;20037;-84
2021/12/03 00:23:16;;;;;;;3.22;0.80;;;-1.80;99.90;;;;;;4985756;28;20033;-83
2021/12/03 00:25:42;;;;;;;3.58;0.98;;;-1.80;99.90;;;;;;4980728;28;20034;-84
2021/12/03 00:28:07;;;;;;;3.42;1.13;;;-1.80;99.90;;;;;;4972575;28;20498;-84
2021/12/03 00:30:35;;;;;;;4.35;1.25;;;-1.80;99.90;;;;;;4973626;28;20098;-84
2021/12/03 00:33:02;;;;;;;4.32;1.25;;;-1.80;99.90;;;;;;4983951;28;20065;-83
2021/12/03 00:35:28;;;;;;;2.72;1.00;;;-1.70;99.90;;;;;;5001670;28;20034;-83
2021/12/03 00:37:54;;;;;;;3.08;1.25;;;-1.80;99.90;;;;;;5007557;28;20082;-83
2021/12/03 00:40:27;;;;;;;4.28;1.20;;;-1.80;99.90;;;;;;4986521;28;20053;-86
2021/12/03 00:42:53;;;;;;;3.03;0.90;;;-2.00;99.90;;;;;;4988924;28;20022;-83
2021/12/03 00:45:20;;;;;;;6.88;1.35;;;-1.90;99.90;;;;;;4991296;28;20493;-84
2021/12/03 00:47:46;;;;;;;3.03;1.10;;;-2.00;99.90;;;;;;4991388;28;20026;-84
2021/12/03 00:50:15;;;;;;;4.65;1.25;;;-2.00;99.90;;;;;;5008910;28;20035;-84
2021/12/03 00:52:41;;;;;;;4.93;1.38;;;-2.00;99.90;;;;;;4982612;28;20049;-84
2021/12/03 00:55:08;;;;;;;4.10;1.67;;;-1.80;99.90;;;;;;4980403;28;20022;-84
2021/12/03 00:57:34;;;;;;;5.05;2.38;;;-1.90;99.90;;;;;;4991263;28;20037;-84
2021/12/03 01:00:01;;;;;;;4.15;1.95;;;-1.80;99.90;;;;;;4991331;28;20033;-84
2021/12/03 01:02:26;;;;;;;5.72;2.10;;;-1.80;99.90;;;;;;4989359;28;20038;-84
2021/12/03 01:04:53;;;;;;;5.50;1.73;;;-1.80;99.90;;;;;;4986929;28;20030;-83
2021/12/03 01:07:18;;;;;;;4.03;2.05;;;-1.90;99.90;;;;;;4994339;28;20044;-83
2021/12/03 01:09:44;;;;;;;3.33;1.70;;;-1.90;99.90;;;;;;5001842;23;20509;-83
2021/12/03 01:12:10;;;;;;;4.55;1.58;;;-1.80;99.90;;;;;;5011836;28;20057;-84
2021/12/03 01:14:37;;;;;;;4.93;1.80;;;-1.70;99.90;;;;;;5011474;28;20084;-83
2021/12/03 01:17:04;;;;;;;4.07;1.75;;;-1.70;99.90;;;;;;5011732;28;20069;-84
2021/12/03 01:19:29;;;;;;;5.72;1.77;;;-1.90;99.90;;;;;;5011560;28;20475;-83
2021/12/03 01:21:55;;;;;;;4.57;1.95;;;-1.70;99.90;;;;;;5011362;28;20034;-84
2021/12/03 01:24:21;;;;;;;3.47;1.67;;;-1.80;99.90;;;;;;4995129;28;20038;-84
2021/12/03 01:26:50;;;;;;;4.07;1.90;;;-1.70;99.90;;;;;;4995315;28;20030;-84
2021/12/03 01:29:15;;;;;;;4.03;1.75;;;-1.60;99.90;;;;;;4995171;28;20034;-84
2021/12/03 01:31:41;;;;;;;5.53;1.63;;;-1.70;99.90;;;;;;5011237;28;20041;-84
2021/12/03 01:34:07;;;;;;;5.32;2.40;;;-1.60;99.90;;;;;;5011138;28;20030;-83
2021/12/03 01:36:32;;;;;;;2.75;1.42;;;-1.70;99.90;;;;;;5011171;28;20085;-83
2021/12/03 01:38:58;;;;;;;4.07;2.05;;;-1.80;99.90;;;;;;4994655;28;20478;-83
2021/12/03 01:41:46;;;;;;;4.78;2.50;;;-1.60;99.90;;;;;;4994955;28;20026;-83
2021/12/03 01:44:12;;;;;;;4.05;2.15;;;-1.60;99.90;;;;;;4994786;28;20029;-84
2021/12/03 01:46:38;;;;;;;4.55;1.85;;;-1.70;99.90;;;;;;5010984;28;20097;-84
2021/12/03 01:49:05;;;;;;;4.85;1.83;;;-1.80;99.90;;;;;;4994719;28;20478;-82
2021/12/03 01:51:31;;;;;;;5.35;1.73;;;-1.70;99.90;;;;;;4994069;28;20033;-83
2021/12/03 01:53:56;;;;;;;5.60;2.28;;;-1.70;99.90;;;;;;4994111;28;20037;-82
2021/12/03 01:56:23;;;;;;;5.88;1.88;;;-1.60;99.90;;;;;;4994208;28;20026;-83
2021/12/03 01:58:51;;;;;;;5.72;2.20;;;-1.70;99.90;;;;;;5010439;28;20060;-83
2021/12/03 02:01:20;;;;;;;5.18;2.03;;;-1.60;99.90;;;;;;4994080;28;20120;-83
2021/12/03 02:03:50;;;;;;;5.55;2.22;;;-1.70;99.90;;;;;;5010259;28;20069;-83
2021/12/03 02:06:18;;;;;;;4.35;2.05;;;-1.80;99.90;;;;;;5010277;28;20072;-82
2021/12/03 02:08:44;;;;;;;3.25;1.58;;;-1.60;99.90;;;;;;4975072;28;20050;-83
2021/12/03 02:11:11;;;;;;;5.28;2.53;;;-1.60;99.90;;;;;;4992312;28;20054;-84
2021/12/03 02:13:37;;;;;;;4.82;1.60;;;-1.50;99.90;;;;;;4994199;28;20046;-83
2021/12/03 02:16:04;;;;;;;6.95;2.85;;;-1.30;99.90;;;;;;4993354;28;20037;-83
2021/12/03 02:18:30;;;;;;;8.18;3.25;;;-1.50;99.90;;;;;;4993276;28;20030;-83
2021/12/03 02:21:00;;;;;;;5.93;2.97;;;-1.40;99.90;;;;;;4993143;28;20048;-84
2021/12/03 02:23:27;;;;;;;5.90;2.65;;;-1.40;99.90;;;;;;4993174;28;20477;-82
2021/12/03 02:25:53;;;;;;;5.95;2.72;;;-1.40;99.90;;;;;;4992802;28;20034;-83
2021/12/03 02:28:21;;;;;;;6.80;2.70;;;-1.40;99.90;;;;;;5009487;28;20053;-84
2021/12/03 02:30:47;;;;;;;8.93;2.78;;;-1.20;99.90;;;;;;4993016;28;20034;-84
2021/12/03 02:33:14;;;;;;;5.88;2.45;;;-1.30;99.90;;;;;;5009330;28;20033;-85
2021/12/03 02:35:43;;;;;;;9.77;4.28;;;-1.20;99.90;;;;;;5009288;28;20024;-84
2021/12/03 02:38:10;;;;;;;5.65;2.95;;;-1.00;99.90;;;;;;5006183;28;20061;-84
2021/12/03 02:40:35;;;;;;;7.68;3.05;;;-1.00;99.90;;;;;;5009028;28;20033;-84
2021/12/03 02:43:01;;;;;;;6.63;2.30;;;-1.20;99.90;;;;;;5008852;28;20030;-84
2021/12/03 02:45:27;;;;;;;10.25;2.90;;;-1.30;99.90;;;;;;4992564;28;20048;-84
2021/12/03 02:47:53;;;;;;;5.43;2.53;;;-1.20;99.90;;;;;;4992604;28;20030;-84
2021/12/03 02:50:19;;;;;;;6.55;3.05;;;-1.10;99.90;;;;;;5008773;28;20518;-84
2021/12/03 02:52:47;;;;;;;5.63;3.45;;;-1.10;99.90;;;;;;5008816;28;20037;-84
2021/12/03 02:55:14;;;;;;;7.15;3.30;;;-1.10;99.90;;;;;;4992486;28;20422;-83
2021/12/03 02:57:39;;;;;;;7.20;3.10;;;-1.10;99.90;;;;;;4992383;28;20041;-84
2021/12/03 03:00:09;;;;;;;11.13;4.35;;;-1.10;99.90;;;;;;4992528;28;20129;-84
2021/12/03 03:02:35;;;;;;;6.50;3.63;;;-1.00;99.90;;;;;;4991679;28;20030;-84
2021/12/03 03:05:01;;;;;;;7.88;3.42;;;-0.80;99.90;;;;;;5008567;28;20088;-83
2021/12/03 03:07:26;;;;;;;5.68;2.75;;;-0.90;99.90;;;;;;5008345;28;20030;-84
2021/12/03 03:09:52;;;;;;;6.45;3.53;;;-1.00;99.90;;;;;;4991909;28;20037;-84
2021/12/03 03:12:18;;;;;;;8.25;3.70;;;-0.90;99.90;;;;;;5008747;28;20080;-84
2021/12/03 03:14:53;;;;;;;6.75;3.50;;;-0.90;99.90;;;;;;4992850;28;20033;-83
2021/12/03 03:17:20;;;;;;;9.13;3.58;;;-0.90;99.90;;;;;;5006893;28;20584;-83
2021/12/03 03:19:46;;;;;;;6.93;3.88;;;-0.80;99.90;;;;;;4994364;28;20030;-83
2021/12/03 03:22:12;;;;;;;6.43;4.00;;;-0.90;99.90;;;;;;4993382;28;20064;-84
2021/12/03 03:24:38;;;;;;;7.75;4.50;;;-0.80;99.90;;;;;;4992108;28;20056;-83
2021/12/03 03:27:04;;;;;;;7.13;3.92;;;-0.60;99.90;;;;;;4991124;28;20056;-83
2021/12/03 03:29:31;;;;;;;8.20;4.05;;;-0.80;99.90;;;;;;4992103;28;20026;-83
2021/12/03 03:31:57;;;;;;;9.77;5.28;;;-0.70;99.90;;;;;;4991876;28;20045;-83
2021/12/03 03:34:22;;;;;;;12.60;5.38;;;-0.70;99.90;;;;;;4990450;28;20033;-84
2021/12/03 03:36:48;;;;;;;8.75;5.18;;;-0.60;99.90;;;;;;4992012;28;20030;-84
2021/12/03 03:39:14;;;;;;;11.45;5.80;;;-0.80;99.90;;;;;;4991581;28;20063;-84
2021/12/03 03:41:41;;;;;;;10.38;6.60;;;-0.70;99.90;;;;;;5005421;28;20022;-83
2021/12/03 03:44:08;;;;;;;13.18;7.60;;;-0.60;99.90;;;;;;5007977;28;20053;-83
2021/12/03 03:46:34;;;;;;;13.30;8.00;;;-0.60;99.90;;;;;;5025905;28;20041;-83
2021/12/03 03:49:00;;;;;;;18.88;10.50;;;-0.50;99.90;;;;;;4991846;28;20044;-82
2021/12/03 03:51:26;;;;;;;15.35;9.15;;;-0.40;99.90;;;;;;5007958;28;20033;-83
2021/12/03 03:53:52;;;;;;;14.13;9.98;;;-0.50;99.90;;;;;;4991485;28;20033;-83
2021/12/03 03:56:17;;;;;;;17.60;9.73;;;-0.50;99.90;;;;;;4991747;28;20099;-83
2021/12/03 03:58:43;;;;;;;17.90;9.50;;;-0.50;99.90;;;;;;4991572;28;20089;-83
2021/12/03 04:01:10;;;;;;;16.58;10.35;;;-0.50;99.90;;;;;;5007890;28;20041;-84
2021/12/03 04:03:36;;;;;;;22.02;10.23;;;-0.30;99.90;;;;;;4991294;28;20026;-83
2021/12/03 04:06:02;;;;;;;18.38;10.55;;;-0.30;99.90;;;;;;4991673;28;20041;-83
2021/12/03 04:08:29;;;;;;;21.92;12.02;;;-0.20;99.90;;;;;;4991221;28;20033;-83
2021/12/03 04:10:58;;;;;;;23.98;12.05;;;-0.10;99.90;;;;;;4991111;28;20053;-82
2021/12/03 04:13:25;;;;;;;27.85;14.60;;;0.00;99.90;;;;;;5007291;28;20042;-81
2021/12/03 04:15:50;;;;;;;29.77;15.27;;;0.00;99.90;;;;;;5007508;28;20033;-81
2021/12/03 04:18:16;;;;;;;31.25;14.30;;;0.00;99.90;;;;;;4991132;28;20037;-81
2021/12/03 04:20:42;;;;;;;31.15;15.15;;;-0.10;99.90;;;;;;4991124;28;20030;-80
2021/12/03 04:23:08;;;;;;;29.08;13.65;;;0.00;99.90;;;;;;5007469;28;20073;-80
2021/12/03 04:25:34;;;;;;;29.85;14.93;;;0.10;99.90;;;;;;5007335;28;20046;-81
2021/12/03 04:28:01;;;;;;;32.58;15.02;;;0.10;99.90;;;;;;4990904;28;20475;-81
2021/12/03 04:30:29;;;;;;;33.28;15.55;;;0.10;99.90;;;;;;5007265;28;20451;-81
2021/12/03 04:32:56;;;;;;;35.10;17.48;;;0.10;99.90;;;;;;4990779;28;20038;-80
2021/12/03 04:35:23;;;;;;;38.10;17.35;;;0.20;99.90;;;;;;4991047;28;20037;-81
2021/12/03 04:37:49;;;;;;;33.80;18.02;;;0.20;99.90;;;;;;5009090;28;20033;-81
2021/12/03 04:40:16;;;;;;;32.70;17.23;;;0.20;99.90;;;;;;4994832;28;20029;-81
2021/12/03 04:42:42;;;;;;;37.92;18.20;;;0.20;99.90;;;;;;4994650;28;20029;-83
2021/12/03 04:45:11;;;;;;;41.53;17.60;;;0.30;99.90;;;;;;5010789;28;20091;-82
2021/12/03 04:47:37;;;;;;;39.97;18.60;;;0.30;99.90;;;;;;4994778;28;20402;-81
2021/12/03 04:50:06;;;;;;;39.92;18.20;;;0.20;99.90;;;;;;5011044;28;20022;-81
2021/12/03 04:52:32;;;;;;;40.20;17.67;;;0.30;99.90;;;;;;5010747;28;20034;-82
2021/12/03 04:54:58;;;;;;;42.22;19.88;;;0.40;99.90;;;;;;4994629;28;20034;-82
2021/12/03 04:57:23;;;;;;;40.97;18.23;;;0.40;99.90;;;;;;4994670;28;20112;-83
2021/12/03 04:59:49;;;;;;;47.95;19.98;;;0.30;99.90;;;;;;4994820;28;20072;-81
2021/12/03 05:02:16;;;;;;;51.35;20.58;;;0.40;99.90;;;;;;4994502;28;20036;-82
2021/12/03 05:04:41;;;;;;;50.10;21.25;;;0.40;99.90;;;;;;5010638;28;20034;-82
2021/12/03 05:09:35;;;;;;;46.50;19.30;;;0.40;99.90;;;;;;5010167;28;20076;-82
2021/12/03 05:12:02;;;;;;;53.33;21.13;;;0.40;99.90;;;;;;5010547;28;20044;-83
2021/12/03 05:14:28;;;;;;;57.03;21.17;;;0.50;99.90;;;;;;5010665;28;20033;-83
2021/12/03 05:16:54;;;;;;;48.53;20.40;;;0.50;99.90;;;;;;4994439;28;20030;-84
2021/12/03 05:19:20;;;;;;;54.60;20.38;;;0.50;99.90;;;;;;5010669;28;20026;-84
2021/12/03 05:21:47;;;;;;;54.13;20.70;;;0.50;99.90;;;;;;4994246;28;20487;-82
2021/12/03 05:24:12;;;;;;;46.47;18.10;;;0.60;99.90;;;;;;5010461;28;20061;-82
2021/12/03 05:26:39;;;;;;;48.45;17.85;;;0.60;99.90;;;;;;4994267;28;20041;-82
2021/12/03 05:29:06;;;;;;;47.65;19.55;;;0.60;99.90;;;;;;5010118;28;20029;-82
2021/12/03 05:31:34;;;;;;;43.97;17.90;;;0.60;99.90;;;;;;5023246;28;20039;-82
2021/12/03 05:34:01;;;;;;;38.70;15.45;;;0.60;99.90;;;;;;4993641;28;20092;-82
2021/12/03 05:36:27;;;;;;;38.97;15.85;;;0.60;99.90;;;;;;5010141;28;20026;-81
2021/12/03 05:38:53;;;;;;;44.92;16.95;;;0.60;99.90;;;;;;5009940;28;20026;-82
2021/12/03 05:41:19;;;;;;;48.83;18.17;;;0.70;99.90;;;;;;5009970;28;20040;-81
2021/12/03 05:43:44;;;;;;;41.80;18.27;;;0.70;99.90;;;;;;5009828;28;20093;-81
2021/12/03 05:46:10;;;;;;;47.60;18.52;;;0.70;99.90;;;;;;4993349;28;20076;-81
2021/12/03 05:48:36;;;;;;;46.83;18.73;;;0.70;99.90;;;;;;4992924;28;20466;-81
2021/12/03 05:51:01;;;;;;;46.85;17.90;;;0.70;99.90;;;;;;5010018;28;20480;-81
2021/12/03 05:53:27;;;;;;;43.08;19.20;;;0.70;99.90;;;;;;4993445;28;20066;-82
2021/12/03 05:55:53;;;;;;;43.33;18.40;;;0.70;99.90;;;;;;5009790;28;20172;-82
2021/12/03 05:58:26;;;;;;;40.55;15.77;;;0.80;99.90;;;;;;4994377;28;20049;-83
2021/12/03 06:00:52;;;;;;;42.65;18.38;;;0.70;99.90;;;;;;5009578;28;20056;-82
2021/12/03 06:03:18;;;;;;;43.53;18.10;;;0.80;99.90;;;;;;4993466;28;20029;-83
2021/12/03 06:05:43;;;;;;;38.97;16.65;;;0.80;99.90;;;;;;4993289;28;20026;-83
2021/12/03 06:08:10;;;;;;;50.85;19.90;;;0.80;99.90;;;;;;5009196;28;20034;-81
2021/12/03 06:10:36;;;;;;;56.03;20.92;;;0.80;99.90;;;;;;5014460;28;20041;-82
2021/12/03 06:13:02;;;;;;;51.80;21.23;;;0.90;99.90;;;;;;4995704;28;20494;-80
2021/12/03 06:15:28;;;;;;;56.53;23.08;;;0.90;99.90;;;;;;4994027;28;20072;-81
2021/12/03 06:17:54;;;;;;;44.63;19.55;;;1.00;99.90;;;;;;4992988;28;20033;-82
2021/12/03 06:20:20;;;;;;;45.58;17.17;;;0.90;99.90;;;;;;5011931;28;20026;-82
2021/12/03 06:22:47;;;;;;;44.25;18.38;;;0.90;99.90;;;;;;5014470;28;20036;-82
2021/12/03 06:25:14;;;;;;;47.38;20.10;;;1.00;99.90;;;;;;4995332;28;20030;-82
2021/12/03 06:27:40;;;;;;;42.55;16.65;;;1.00;99.90;;;;;;4998308;28;20470;-82
2021/12/03 06:30:10;;;;;;;43.28;18.80;;;1.00;99.90;;;;;;4999022;28;20097;-81
2021/12/03 06:32:36;;;;;;;49.17;19.45;;;1.00;99.90;;;;;;4992567;28;20544;-82
2021/12/03 06:35:04;;;;;;;49.22;18.58;;;1.00;99.90;;;;;;4997868;28;20025;-81
2021/12/03 06:37:30;;;;;;;46.53;19.35;;;1.00;99.90;;;;;;5014506;28;20037;-82
2021/12/03 06:39:55;;;;;;;45.58;18.20;;;1.10;99.90;;;;;;5009920;28;20160;-83
2021/12/03 06:42:21;;;;;;;46.17;18.75;;;1.10;99.90;;;;;;5011430;28;20025;-81
2021/12/03 06:44:47;;;;;;;47.55;19.95;;;1.10;99.90;;;;;;5011332;28;20037;-81
2021/12/03 06:47:12;;;;;;;45.83;19.50;;;1.20;99.90;;;;;;5008710;28;20053;-80
2021/12/03 06:49:38;;;;;;;47.55;19.70;;;1.20;99.90;;;;;;5008775;28;20092;-80
2021/12/03 06:52:11;;;;;;;49.03;21.08;;;1.20;99.90;;;;;;5011173;28;20056;-80
2021/12/03 06:54:36;;;;;;;48.40;20.08;;;1.20;99.90;;;;;;5013231;28;20041;-81
2021/12/03 06:57:05;;;;;;;46.60;20.45;;;1.30;99.90;;;;;;4994625;28;20026;-81
2021/12/03 06:59:31;;;;;;;41.22;16.80;;;1.30;99.90;;;;;;5012996;28;20026;-81
2021/12/03 07:01:58;;;;;;;48.25;18.92;;;1.30;99.90;;;;;;4994714;28;20100;-81
2021/12/03 07:04:24;;;;;;;42.95;20.13;;;1.30;99.90;;;;;;4991966;28;20053;-80
2021/12/03 07:06:50;;;;;;;47.42;21.58;;;1.30;99.90;;;;;;4992091;28;20044;-80
2021/12/03 07:09:16;;;;;;;45.63;20.52;;;1.40;99.90;;;;;;4997165;28;20034;-81
2021/12/03 07:11:42;;;;;;;50.88;22.48;;;1.40;99.90;;;;;;4997192;28;20033;-81
2021/12/03 07:14:08;;;;;;;48.55;23.70;;;1.50;99.90;;;;;;4997065;28;20037;-80
2021/12/03 07:16:33;;;;;;;49.83;24.98;;;1.50;99.90;;;;;;5009344;28;20090;-81
2021/12/03 07:18:59;;;;;;;43.55;19.90;;;1.50;99.90;;;;;;4992708;28;20445;-81
2021/12/03 07:21:26;;;;;;;48.97;22.23;;;1.50;99.90;;;;;;4992340;28;20030;-81
2021/12/03 07:23:55;;;;;;;43.15;21.05;;;1.50;99.90;;;;;;5007778;28;20029;-80
2021/12/03 07:26:23;;;;;;;48.22;21.10;;;1.50;99.90;;;;;;4991668;28;20034;-79
2021/12/03 07:28:49;;;;;;;40.50;18.88;;;1.50;99.90;;;;;;4994480;28;20041;-81
2021/12/03 07:31:15;;;;;;;42.78;20.02;;;1.50;99.90;;;;;;4991533;28;20034;-82
2021/12/03 07:33:41;;;;;;;36.05;17.98;;;1.50;99.90;;;;;;5009625;28;20038;-81
2021/12/03 07:36:07;;;;;;;39.85;19.83;;;1.50;99.90;;;;;;5010460;28;20038;-82
2021/12/03 07:38:35;;;;;;;34.83;15.80;;;1.50;99.90;;;;;;4991435;28;20030;-81
2021/12/03 07:41:01;;;;;;;39.25;16.92;;;1.50;99.90;;;;;;5007696;28;20030;-81
2021/12/03 07:43:27;;;;;;;33.42;16.77;;;1.50;99.90;;;;;;4990642;28;20026;-81
2021/12/03 07:45:53;;;;;;;39.47;16.80;;;1.50;99.90;;;;;;4988295;28;20026;-81
2021/12/03 07:48:21;;;;;;;30.58;15.60;;;1.50;99.90;;;;;;4991064;28;20044;-81
2021/12/03 07:50:48;;;;;;;27.23;14.52;;;1.50;99.90;;;;;;5024473;28;20061;-80
2021/12/03 07:53:17;;;;;;;30.58;13.73;;;1.60;99.90;;;;;;4993158;28;20041;-81
2021/12/03 07:55:43;;;;;;;26.13;12.32;;;1.60;99.90;;;;;;4994729;28;20455;-80
2021/12/03 07:58:09;;;;;;;27.75;12.35;;;1.60;99.90;;;;;;4992501;28;20072;-81
2021/12/03 08:00:35;;;;;;;26.23;12.48;;;1.60;99.90;;;;;;5024042;28;20041;-81
2021/12/03 08:03:00;;;;;;;25.40;9.65;;;1.60;99.90;;;;;;4990403;28;20074;-80
2021/12/03 08:05:26;;;;;;;23.58;10.25;;;1.60;99.90;;;;;;5024424;28;20029;-84
2021/12/03 08:08:12;;;;;;;21.05;10.90;;;1.70;99.90;;;;;;5024286;28;20026;-81
2021/12/03 08:10:51;;;;;;;15.45;7.53;;;1.60;99.90;;;;;;5049798;23;20057;-80
2021/12/03 08:13:16;;;;;;;16.42;7.55;;;1.70;99.90;;;;;;5012747;28;20045;-80
2021/12/03 08:15:42;;;;;;;19.05;8.02;;;1.70;99.90;;;;;;5030827;28;20064;-79
2021/12/03 08:18:08;;;;;;;19.73;7.15;;;1.70;99.90;;;;;;5028883;28;20029;-80
2021/12/03 08:20:34;;;;;;;17.88;6.90;;;1.60;99.90;;;;;;5019633;28;20024;-81
2021/12/03 08:23:00;;;;;;;15.18;6.47;;;1.70;99.90;;;;;;5010826;28;20030;-81
2021/12/03 08:25:26;;;;;;;14.55;6.20;;;1.60;99.90;;;;;;4994610;28;20104;-80
2021/12/03 08:27:53;;;;;;;15.85;5.60;;;1.70;99.90;;;;;;4994578;28;20485;-79
2021/12/03 08:30:19;;;;;;;13.38;5.22;;;1.70;99.90;;;;;;4994340;28;20026;-80
2021/12/03 08:32:45;;;;;;;11.07;5.45;;;1.70;99.90;;;;;;5010528;28;20109;-79
2021/12/03 08:35:11;;;;;;;15.20;5.20;;;1.70;99.90;;;;;;4994626;28;20029;-79
2021/12/03 08:37:43;;;;;;;14.65;5.22;;;1.70;99.90;;;;;;4996959;28;20034;-79
2021/12/03 08:40:10;;;;;;;13.50;5.00;;;1.80;99.90;;;;;;5028498;28;20033;-80
2021/12/03 08:42:39;;;;;;;16.02;5.45;;;1.80;99.90;;;;;;5030183;28;20116;-79
2021/12/03 08:45:05;;;;;;;15.43;4.93;;;1.80;99.90;;;;;;5018929;28;20444;-79
2021/12/03 08:47:33;;;;;;;15.90;5.30;;;1.80;99.90;;;;;;5012881;28;20038;-80
2021/12/03 08:50:00;;;;;;;21.42;6.43;;;1.90;99.90;;;;;;5029997;28;20102;-79
2021/12/03 08:52:46;;;;;;;14.07;4.70;;;1.80;99.90;;;;;;5027899;28;20033;-80
2021/12/03 08:55:13;;;;;;;13.30;4.45;;;1.80;99.90;;;;;;4986384;28;20052;-79
2021/12/03 08:57:38;;;;;;;11.90;3.85;;;1.90;99.90;;;;;;5046039;28;20029;-80
2021/12/03 09:00:07;;;;;;;12.75;4.28;;;1.80;99.90;;;;;;5012858;28;20044;-80
2021/12/03 09:02:32;;;;;;;12.93;3.67;;;1.90;99.90;;;;;;5028906;28;20029;-80
2021/12/03 09:04:58;;;;;;;10.93;3.70;;;1.90;99.90;;;;;;5011383;28;20033;-80
2021/12/03 09:07:23;;;;;;;13.27;4.20;;;1.90;99.90;;;;;;5012811;28;20036;-80
2021/12/03 09:09:49;;;;;;;13.80;4.88;;;1.90;99.90;;;;;;5008440;28;20053;-80
2021/12/03 09:12:15;;;;;;;12.63;4.30;;;1.90;99.90;;;;;;5028746;28;20042;-80
2021/12/03 09:14:44;;;;;;;17.50;5.05;;;2.00;99.90;;;;;;5015322;28;20112;-80
2021/12/03 09:22:43;;;;;;;15.00;4.72;;;2.00;99.90;;;;;;5025225;28;20423;-81
2021/12/03 09:25:13;;;;;;;10.82;4.15;;;2.10;99.90;;;;;;5027187;28;20040;-80
2021/12/03 09:27:39;;;;;;;;;;;2.20;99.90;;;;;;5011386;28;20025;-80
2021/12/03 09:30:07;;;;;;;12.68;3.65;;;2.20;99.90;;;;;;5010252;28;20288;-80
2021/12/03 09:32:33;;;;;;;14.05;3.70;;;2.30;99.90;;;;;;5015538;28;20045;-80
2021/12/03 09:35:01;;;;;;;16.45;3.95;;;2.30;99.90;;;;;;5027865;28;20026;-80
2021/12/03 09:37:27;;;;;;;12.88;2.80;;;2.30;99.90;;;;;;5008573;28;20049;-80
2021/12/03 09:39:55;;;;;;;17.80;3.88;;;2.30;99.90;;;;;;5028194;28;20025;-80
2021/12/03 09:42:21;;;;;;;13.32;3.22;;;2.30;99.90;;;;;;5028123;28;20125;-80
2021/12/03 09:44:52;;;;;;;13.18;2.80;;;2.30;99.90;;;;;;5028718;28;20037;-81
2021/12/03 09:47:19;;;;;;;14.73;3.33;;;2.40;99.90;;;;;;5012825;28;20047;-80
2021/12/03 09:49:52;;;;;;;10.52;2.53;;;2.40;99.90;;;;;;5029166;28;20060;-80
2021/12/03 09:55:00;;;;;;;12.95;2.22;;;2.50;99.90;;;;;;5031328;28;20482;-81
2021/12/03 09:57:39;;;;;;;15.13;2.95;;;2.60;99.90;;;;;;5012785;28;20028;-81
2021/12/03 10:09:23;;;;;;;10.43;2.17;;;2.60;99.90;;;;;;5029405;28;20048;-81
2021/12/03 10:17:22;;;;;;;12.57;2.95;;;2.60;99.90;;;;;;5046867;28;20033;-82
2021/12/03 10:38:42;;;;;;;13.88;2.90;;;2.70;99.90;;;;;;5028332;28;20033;-82
2021/12/03 10:54:05;;;;;;;13.90;3.50;;;3.00;99.90;;;;;;5028159;28;20042;-85
2021/12/03 10:59:39;;;;;;;14.95;2.17;;;3.00;99.90;;;;;;5028221;28;20040;-84
2021/12/03 11:11:17;;;;;;;10.75;2.47;;;3.10;99.90;;;;;;4963985;29;20090;-86
2021/12/03 11:37:52;;;;;;;7.45;1.90;;;3.40;99.90;;;;;;4948722;29;20035;-81
2021/12/03 12:18:29;;;;;;;8.13;2.25;;;3.80;99.90;;;;;;4929179;29;20063;-85
2021/12/03 12:30:36;;;;;;;7.78;2.13;;;3.90;99.90;;;;;;4941377;29;20039;-81
2021/12/03 13:03:38;;;;;;;5.35;1.60;;;4.30;99.90;;;;;;5029628;28;20021;-83
2021/12/03 13:17:09;;;;;;;9.05;1.95;;;4.20;99.90;;;;;;5029023;28;20083;-84
2021/12/03 13:34:25;;;;;;;8.45;1.60;;;4.30;99.90;;;;;;5044229;28;20069;-84
2021/12/03 13:37:29;;;;;;;7.72;1.50;;;4.30;99.90;;;;;;5029442;28;20044;-84
2021/12/03 13:44:10;;;;;;;8.63;2.00;;;4.30;99.90;;;;;;5046949;28;20026;-85
2021/12/03 13:59:13;;;;;;;9.50;1.33;;;4.30;99.90;;;;;;5025192;28;20033;-85
2021/12/03 14:07:18;;;;;;;7.30;1.73;;;4.30;99.90;;;;;;5028002;28;20034;-82
2021/12/03 14:27:52;;;;;;;6.55;1.27;;;4.30;99.90;;;;;;5023963;28;20085;-81
2021/12/03 14:36:57;;;;;;;4.10;1.58;;;4.10;99.90;;;;;;5024546;28;20046;-82
2021/12/03 14:39:48;;;;;;;4.25;1.10;;;4.10;99.90;;;;;;5008341;28;20669;-82
2021/12/03 14:42:49;;;;;;;6.05;1.13;;;4.00;99.90;;;;;;5007841;28;20033;-83
2021/12/03 14:45:15;;;;;;;5.85;1.35;;;4.00;99.90;;;;;;5008011;28;20054;-81
2021/12/03 14:47:55;;;;;;;9.40;1.90;;;3.90;99.90;;;;;;5008285;28;20088;-82
2021/12/03 14:55:30;;;;;;;5.55;1.30;;;3.80;99.90;;;;;;5029466;28;20041;-83
2021/12/03 14:58:51;;;;;;;5.15;1.73;;;3.70;99.90;;;;;;5026427;28;20044;-81
2021/12/03 15:00:59;;;;;;;3.03;1.00;;;3.70;99.90;;;;;;5001177;28;20038;-82
2021/12/03 15:06:22;;;;;;;6.13;1.55;;;3.70;99.90;;;;;;5009183;28;20478;-80
2021/12/03 15:08:54;;;;;;;6.43;1.70;;;3.60;99.90;;;;;;4992528;28;20037;-80
2021/12/03 15:24:53;;;;;;;6.00;1.67;;;3.60;99.90;;;;;;5045698;28;20037;-81
2021/12/03 15:35:15;;;;;;;6.22;2.28;;;3.60;99.90;;;;;;5017844;28;20053;-81
2021/12/03 15:38:05;;;;;;;7.10;1.90;;;3.50;99.90;;;;;;5007799;28;20041;-82
2021/12/03 16:08:18;;;;;;;5.43;1.95;;;3.50;99.90;;;;;;5007835;28;20038;-82
2021/12/03 16:13:47;;;;;;;4.43;1.95;;;3.60;99.90;;;;;;4911609;29;20164;-83
2021/12/03 16:19:13;;;;;;;4.78;2.42;;;3.60;99.90;;;;;;4937080;29;20136;-83
2021/12/03 16:49:41;;;;;;;4.50;3.25;;;3.60;99.90;;;;;;5010647;28;20049;-84
2021/12/03 16:51:30;;;;;;;5.65;2.83;;;3.60;99.90;;;;;;5021008;28;20068;-85
2021/12/03 16:54:04;;;;;;;;;;;3.60;99.90;;;;;;5011847;28;20052;-84
2021/12/03 16:56:30;;;;;;;4.68;2.50;;;3.60;99.90;;;;;;4994665;28;19925;-82
2021/12/03 16:58:58;;;;;;;5.53;2.95;;;3.60;99.90;;;;;;5010852;28;20113;-83
2021/12/03 17:01:55;;;;;;;6.07;3.53;;;3.60;99.90;;;;;;5011151;28;20044;-83
2021/12/03 17:10:06;;;;;;;4.80;2.60;;;3.60;99.90;;;;;;5028485;28;20104;-81
2021/12/03 17:12:41;;;;;;;4.85;2.88;;;3.60;99.90;;;;;;5026584;28;20053;-82
2021/12/03 17:24:12;;;;;;;4.97;3.42;;;3.70;99.90;;;;;;5030593;28;20083;-82
2021/12/03 17:44:15;;;;;;;3.83;3.30;;;3.70;99.90;;;;;;5048108;28;20025;-81
2021/12/03 17:48:32;;;;;;;4.45;2.75;;;3.70;99.90;;;;;;5046420;28;20147;-81
2021/12/03 17:51:08;;;;;;;3.42;2.45;;;3.70;99.90;;;;;;5028714;28;20021;-81
2021/12/03 17:54:00;;;;;;;2.95;2.10;;;3.80;99.90;;;;;;5028295;28;20041;-81
2021/12/03 17:56:28;;;;;;;4.38;2.50;;;3.70;99.90;;;;;;5010508;28;20028;-83
2021/12/03 17:58:57;;;;;;;2.40;2.20;;;3.70;99.90;;;;;;5028708;28;20061;-81
2021/12/03 18:01:37;;;;;;;3.95;2.53;;;3.80;99.90;;;;;;5028217;28;20132;-82
2021/12/03 18:04:09;;;;;;;3.25;2.67;;;3.70;99.90;;;;;;5028670;28;20030;-83
2021/12/03 18:06:57;;;;;;;3.00;2.70;;;3.80;99.90;;;;;;5028979;28;20025;-81
2021/12/03 18:12:45;;;;;;;4.55;3.20;;;3.80;99.90;;;;;;5006649;28;20041;-82
2021/12/03 18:15:44;;;;;;;6.90;4.93;;;3.80;99.90;;;;;;5042435;28;20037;-82
2021/12/03 18:54:03;;;;;;;3.33;1.92;;;3.80;99.90;;;;;;5027776;28;20044;-83
2021/12/03 18:56:32;;;;;;;3.45;3.03;;;3.80;99.90;;;;;;5027400;28;20474;-82
2021/12/03 18:59:03;;;;;;;5.25;2.40;;;3.80;99.90;;;;;;5027889;28;20037;-83
2021/12/03 19:01:30;;;;;;;3.17;2.53;;;3.80;99.90;;;;;;5011119;28;20037;-84
2021/12/03 19:06:38;;;;;;;4.53;3.33;;;3.80;99.90;;;;;;5027898;28;20052;-84
2021/12/03 19:11:36;;;;;;;3.50;3.17;;;3.80;99.90;;;;;;5027085;28;20053;-83
2021/12/03 19:14:03;;;;;;;3.20;2.90;;;3.90;99.90;;;;;;5045424;28;20059;-86
2021/12/03 19:16:29;;;;;;;3.95;2.90;;;3.80;99.90;;;;;;5011133;28;20233;-83
2021/12/03 19:18:57;;;;;;;4.95;3.25;;;3.80;99.90;;;;;;5011082;28;20030;-84
2021/12/03 19:21:26;;;;;;;3.22;2.33;;;3.80;99.90;;;;;;5014127;28;20025;-83
2021/12/03 19:23:58;;;;;;;5.75;3.03;;;3.80;99.90;;;;;;5026077;28;20080;-83
2021/12/03 19:26:25;;;;;;;3.08;2.75;;;3.80;99.90;;;;;;5022902;28;20037;-84
2021/12/03 19:28:51;;;;;;;3.70;2.83;;;3.80;99.90;;;;;;5040569;28;20040;-83
2021/12/03 19:31:21;;;;;;;3.33;3.03;;;3.80;99.90;;;;;;5027307;28;20033;-83
2021/12/03 19:33:46;;;;;;;5.07;3.23;;;3.80;99.90;;;;;;5008296;28;20072;-83
2021/12/03 19:36:19;;;;;;;4.07;2.65;;;3.80;99.90;;;;;;5045088;28;20022;-83
2021/12/03 19:38:45;;;;;;;4.75;3.70;;;3.80;99.90;;;;;;5027377;28;20112;-83
2021/12/03 19:41:15;;;;;;;4.68;3.58;;;3.80;99.90;;;;;;4988687;28;20465;-82
2021/12/03 19:43:47;;;;;;;;;;;3.80;99.90;;;;;;5022461;28;20120;-83